sensor_id;sensor_type;location;lat;lon;timestamp;P1;durP1;ratioP1;P2;durP2;ratioP2
41139;SDS011;26881;48.784;9.192;2022-07-23T00:03:25;3.97;;;3.58;;
41139;SDS011;26881;48.784;9.192;2022-07-23T00:08:47;4.45;;;3.70;;
41139;SDS011;26881;48.784;9.192;2022-07-23T00:14:09;4.43;;;3.53;;
41139;SDS011;26881;48.784;9.192;2022-07-23T00:19:31;6.60;;;3.80;;
41139;SDS011;26881;48.784;9.192;2022-07-23T00:24:53;3.80;;;3.53;;
41139;SDS011;26881;48.784;9.192;2022-07-23T00:30:35;3.78;;;3.40;;
41139;SDS011;26881;48.784;9.192;2022-07-23T00:35:57;3.35;;;2.95;;
41139;SDS011;26881;48.784;9.192;2022-07-23T00:41:19;4.15;;;3.05;;
41139;SDS011;26881;48.784;9.192;2022-07-23T00:46:48;4.22;;;3.58;;
41139;SDS011;26881;48.784;9.192;2022-07-23T00:52:14;4.10;;;2.95;;
41139;SDS011;26881;48.784;9.192;2022-07-23T00:57:36;4.22;;;3.70;;
41139;SDS011;26881;48.784;9.192;2022-07-23T01:02:59;4.05;;;3.65;;
41139;SDS011;26881;48.784;9.192;2022-07-23T01:08:20;4.00;;;3.70;;
41139;SDS011;26881;48.784;9.192;2022-07-23T01:13:43;4.60;;;3.20;;
41139;SDS011;26881;48.784;9.192;2022-07-23T01:19:05;5.22;;;3.72;;
41139;SDS011;26881;48.784;9.192;2022-07-23T01:24:28;4.45;;;3.58;;
41139;SDS011;26881;48.784;9.192;2022-07-23T01:29:50;4.38;;;3.13;;
41139;SDS011;26881;48.784;9.192;2022-07-23T01:35:12;4.68;;;3.60;;
41139;SDS011;26881;48.784;9.192;2022-07-23T01:40:34;3.75;;;3.33;;
41139;SDS011;26881;48.784;9.192;2022-07-23T01:45:56;4.22;;;3.60;;
41139;SDS011;26881;48.784;9.192;2022-07-23T01:51:18;3.88;;;3.53;;
41139;SDS011;26881;48.784;9.192;2022-07-23T01:56:40;4.30;;;3.92;;
41139;SDS011;26881;48.784;9.192;2022-07-23T02:02:01;3.80;;;3.47;;
41139;SDS011;26881;48.784;9.192;2022-07-23T02:07:25;6.68;;;3.83;;
41139;SDS011;26881;48.784;9.192;2022-07-23T02:12:47;3.50;;;3.20;;
41139;SDS011;26881;48.784;9.192;2022-07-23T02:18:08;4.30;;;3.50;;
41139;SDS011;26881;48.784;9.192;2022-07-23T02:23:30;6.28;;;3.75;;
41139;SDS011;26881;48.784;9.192;2022-07-23T02:28:52;3.95;;;3.65;;
41139;SDS011;26881;48.784;9.192;2022-07-23T02:34:17;4.15;;;3.30;;
41139;SDS011;26881;48.784;9.192;2022-07-23T02:39:39;4.07;;;3.67;;
41139;SDS011;26881;48.784;9.192;2022-07-23T02:45:00;6.47;;;3.70;;
41139;SDS011;26881;48.784;9.192;2022-07-23T02:50:22;4.43;;;3.38;;
41139;SDS011;26881;48.784;9.192;2022-07-23T02:55:44;4.00;;;3.63;;
41139;SDS011;26881;48.784;9.192;2022-07-23T03:01:06;5.22;;;3.40;;
41139;SDS011;26881;48.784;9.192;2022-07-23T03:06:28;3.88;;;3.58;;
41139;SDS011;26881;48.784;9.192;2022-07-23T03:11:50;3.67;;;3.22;;
41139;SDS011;26881;48.784;9.192;2022-07-23T03:17:11;4.38;;;3.35;;
41139;SDS011;26881;48.784;9.192;2022-07-23T03:22:33;6.05;;;3.40;;
41139;SDS011;26881;48.784;9.192;2022-07-23T03:27:55;3.55;;;3.25;;
41139;SDS011;26881;48.784;9.192;2022-07-23T03:33:17;4.78;;;3.58;;
41139;SDS011;26881;48.784;9.192;2022-07-23T03:38:40;4.15;;;3.72;;
41139;SDS011;26881;48.784;9.192;2022-07-23T03:44:02;4.97;;;4.05;;
41139;SDS011;26881;48.784;9.192;2022-07-23T03:49:24;4.78;;;3.92;;
41139;SDS011;26881;48.784;9.192;2022-07-23T03:54:47;4.38;;;3.97;;
41139;SDS011;26881;48.784;9.192;2022-07-23T04:00:09;6.40;;;4.13;;
41139;SDS011;26881;48.784;9.192;2022-07-23T04:05:33;5.28;;;4.30;;
41139;SDS011;26881;48.784;9.192;2022-07-23T04:10:55;4.38;;;3.97;;
41139;SDS011;26881;48.784;9.192;2022-07-23T04:16:17;5.15;;;4.07;;
41139;SDS011;26881;48.784;9.192;2022-07-23T04:21:39;5.85;;;3.78;;
41139;SDS011;26881;48.784;9.192;2022-07-23T04:27:00;6.63;;;4.05;;
41139;SDS011;26881;48.784;9.192;2022-07-23T04:32:22;6.43;;;4.03;;
41139;SDS011;26881;48.784;9.192;2022-07-23T04:37:44;4.72;;;4.28;;
41139;SDS011;26881;48.784;9.192;2022-07-23T04:43:06;4.35;;;3.95;;
41139;SDS011;26881;48.784;9.192;2022-07-23T04:48:27;5.90;;;4.35;;
41139;SDS011;26881;48.784;9.192;2022-07-23T04:53:49;4.90;;;4.10;;
41139;SDS011;26881;48.784;9.192;2022-07-23T04:59:11;5.85;;;4.35;;
41139;SDS011;26881;48.784;9.192;2022-07-23T05:04:33;4.28;;;3.88;;
41139;SDS011;26881;48.784;9.192;2022-07-23T05:09:55;4.45;;;4.05;;
41139;SDS011;26881;48.784;9.192;2022-07-23T05:15:17;4.45;;;4.05;;
41139;SDS011;26881;48.784;9.192;2022-07-23T05:20:38;5.32;;;3.83;;
41139;SDS011;26881;48.784;9.192;2022-07-23T05:26:00;4.57;;;4.18;;
41139;SDS011;26881;48.784;9.192;2022-07-23T05:31:22;6.93;;;3.70;;
41139;SDS011;26881;48.784;9.192;2022-07-23T05:36:44;5.47;;;4.47;;
41139;SDS011;26881;48.784;9.192;2022-07-23T05:42:06;5.03;;;4.22;;
41139;SDS011;26881;48.784;9.192;2022-07-23T05:47:28;6.43;;;4.30;;
41139;SDS011;26881;48.784;9.192;2022-07-23T05:52:50;4.80;;;4.15;;
41139;SDS011;26881;48.784;9.192;2022-07-23T05:58:13;5.20;;;4.50;;
41139;SDS011;26881;48.784;9.192;2022-07-23T06:03:35;5.00;;;4.50;;
41139;SDS011;26881;48.784;9.192;2022-07-23T06:08:57;5.05;;;4.47;;
41139;SDS011;26881;48.784;9.192;2022-07-23T06:14:20;4.55;;;4.15;;
41139;SDS011;26881;48.784;9.192;2022-07-23T06:19:41;4.78;;;4.10;;
41139;SDS011;26881;48.784;9.192;2022-07-23T06:25:03;4.43;;;4.03;;
41139;SDS011;26881;48.784;9.192;2022-07-23T06:30:32;4.60;;;4.20;;
41139;SDS011;26881;48.784;9.192;2022-07-23T06:35:54;6.82;;;4.80;;
41139;SDS011;26881;48.784;9.192;2022-07-23T06:41:17;6.15;;;4.63;;
41139;SDS011;26881;48.784;9.192;2022-07-23T06:46:40;6.93;;;4.80;;
41139;SDS011;26881;48.784;9.192;2022-07-23T06:52:02;6.78;;;4.90;;
41139;SDS011;26881;48.784;9.192;2022-07-23T06:57:24;4.80;;;4.40;;
41139;SDS011;26881;48.784;9.192;2022-07-23T07:02:47;7.35;;;4.97;;
41139;SDS011;26881;48.784;9.192;2022-07-23T07:08:09;7.50;;;5.18;;
41139;SDS011;26881;48.784;9.192;2022-07-23T07:13:30;5.10;;;4.40;;
41139;SDS011;26881;48.784;9.192;2022-07-23T07:18:52;5.72;;;4.57;;
41139;SDS011;26881;48.784;9.192;2022-07-23T07:24:14;5.10;;;4.50;;
41139;SDS011;26881;48.784;9.192;2022-07-23T07:29:36;6.43;;;4.57;;
41139;SDS011;26881;48.784;9.192;2022-07-23T07:34:58;5.30;;;4.80;;
41139;SDS011;26881;48.784;9.192;2022-07-23T07:40:20;8.45;;;5.10;;
41139;SDS011;26881;48.784;9.192;2022-07-23T07:45:42;5.82;;;5.22;;
41139;SDS011;26881;48.784;9.192;2022-07-23T07:51:04;7.18;;;5.05;;
41139;SDS011;26881;48.784;9.192;2022-07-23T07:56:27;6.55;;;4.28;;
41139;SDS011;26881;48.784;9.192;2022-07-23T08:01:48;4.82;;;4.40;;
41139;SDS011;26881;48.784;9.192;2022-07-23T08:07:10;5.07;;;4.30;;
41139;SDS011;26881;48.784;9.192;2022-07-23T08:12:42;7.07;;;4.38;;
41139;SDS011;26881;48.784;9.192;2022-07-23T08:18:06;5.18;;;4.68;;
41139;SDS011;26881;48.784;9.192;2022-07-23T08:23:28;5.25;;;4.57;;
41139;SDS011;26881;48.784;9.192;2022-07-23T08:28:51;5.10;;;4.60;;
41139;SDS011;26881;48.784;9.192;2022-07-23T08:34:12;5.15;;;4.65;;
41139;SDS011;26881;48.784;9.192;2022-07-23T08:39:34;4.97;;;4.50;;
41139;SDS011;26881;48.784;9.192;2022-07-23T08:44:56;6.43;;;4.50;;
41139;SDS011;26881;48.784;9.192;2022-07-23T08:50:18;5.13;;;4.22;;
41139;SDS011;26881;48.784;9.192;2022-07-23T08:55:42;5.63;;;4.95;;
41139;SDS011;26881;48.784;9.192;2022-07-23T09:01:08;5.30;;;4.90;;
41139;SDS011;26881;48.784;9.192;2022-07-23T09:06:30;7.18;;;5.22;;
41139;SDS011;26881;48.784;9.192;2022-07-23T09:12:05;5.78;;;5.10;;
41139;SDS011;26881;48.784;9.192;2022-07-23T09:17:28;5.90;;;5.03;;
41139;SDS011;26881;48.784;9.192;2022-07-23T09:22:59;5.20;;;4.80;;
41139;SDS011;26881;48.784;9.192;2022-07-23T09:28:41;5.93;;;4.50;;
41139;SDS011;26881;48.784;9.192;2022-07-23T09:34:13;5.53;;;4.82;;
41139;SDS011;26881;48.784;9.192;2022-07-23T09:39:36;5.07;;;4.68;;
41139;SDS011;26881;48.784;9.192;2022-07-23T09:44:59;6.05;;;4.68;;
41139;SDS011;26881;48.784;9.192;2022-07-23T09:50:20;6.07;;;4.70;;
41139;SDS011;26881;48.784;9.192;2022-07-23T09:55:47;5.15;;;4.75;;
41139;SDS011;26881;48.784;9.192;2022-07-23T10:01:10;5.22;;;4.65;;
41139;SDS011;26881;48.784;9.192;2022-07-23T10:06:34;4.90;;;4.50;;
41139;SDS011;26881;48.784;9.192;2022-07-23T10:11:57;5.38;;;4.78;;
41139;SDS011;26881;48.784;9.192;2022-07-23T10:17:32;5.78;;;4.28;;
41139;SDS011;26881;48.784;9.192;2022-07-23T10:28:49;4.65;;;4.07;;
41139;SDS011;26881;48.784;9.192;2022-07-23T10:34:42;4.15;;;3.75;;
41139;SDS011;26881;48.784;9.192;2022-07-23T10:40:17;5.40;;;4.90;;
41139;SDS011;26881;48.784;9.192;2022-07-23T10:45:42;4.85;;;4.35;;
41139;SDS011;26881;48.784;9.192;2022-07-23T10:51:09;4.85;;;4.38;;
41139;SDS011;26881;48.784;9.192;2022-07-23T10:57:04;4.93;;;4.45;;
41139;SDS011;26881;48.784;9.192;2022-07-23T11:02:31;6.13;;;5.53;;
41139;SDS011;26881;48.784;9.192;2022-07-23T11:13:25;4.18;;;3.88;;
41139;SDS011;26881;48.784;9.192;2022-07-23T11:18:57;4.80;;;4.40;;
41139;SDS011;26881;48.784;9.192;2022-07-23T11:24:21;5.30;;;4.57;;
41139;SDS011;26881;48.784;9.192;2022-07-23T11:29:45;5.03;;;4.60;;
41139;SDS011;26881;48.784;9.192;2022-07-23T11:35:21;6.45;;;3.85;;
41139;SDS011;26881;48.784;9.192;2022-07-23T11:40:46;4.30;;;3.90;;
41139;SDS011;26881;48.784;9.192;2022-07-23T11:46:16;5.03;;;4.50;;
41139;SDS011;26881;48.784;9.192;2022-07-23T11:51:38;5.80;;;5.05;;
41139;SDS011;26881;48.784;9.192;2022-07-23T11:57:00;5.78;;;4.82;;
41139;SDS011;26881;48.784;9.192;2022-07-23T12:02:23;5.68;;;4.70;;
41139;SDS011;26881;48.784;9.192;2022-07-23T12:07:47;5.68;;;4.03;;
41139;SDS011;26881;48.784;9.192;2022-07-23T12:13:14;5.32;;;4.88;;
41139;SDS011;26881;48.784;9.192;2022-07-23T12:18:39;5.53;;;4.95;;
41139;SDS011;26881;48.784;9.192;2022-07-23T12:24:07;6.78;;;4.70;;
41139;SDS011;26881;48.784;9.192;2022-07-23T12:29:35;4.68;;;4.28;;
41139;SDS011;26881;48.784;9.192;2022-07-23T12:35:04;5.05;;;4.55;;
41139;SDS011;26881;48.784;9.192;2022-07-23T12:40:31;6.10;;;4.65;;
41139;SDS011;26881;48.784;9.192;2022-07-23T12:45:54;4.97;;;4.45;;
41139;SDS011;26881;48.784;9.192;2022-07-23T12:51:25;5.03;;;4.45;;
41139;SDS011;26881;48.784;9.192;2022-07-23T12:56:53;6.47;;;5.15;;
41139;SDS011;26881;48.784;9.192;2022-07-23T13:02:15;5.20;;;4.70;;
41139;SDS011;26881;48.784;9.192;2022-07-23T13:07:37;5.28;;;4.82;;
41139;SDS011;26881;48.784;9.192;2022-07-23T13:12:59;5.40;;;4.90;;
41139;SDS011;26881;48.784;9.192;2022-07-23T13:18:21;5.63;;;4.53;;
41139;SDS011;26881;48.784;9.192;2022-07-23T13:23:43;7.57;;;4.35;;
41139;SDS011;26881;48.784;9.192;2022-07-23T13:29:05;5.80;;;4.82;;
41139;SDS011;26881;48.784;9.192;2022-07-23T13:34:29;6.28;;;4.75;;
41139;SDS011;26881;48.784;9.192;2022-07-23T13:39:51;5.38;;;4.88;;
41139;SDS011;26881;48.784;9.192;2022-07-23T13:45:13;6.05;;;5.38;;
41139;SDS011;26881;48.784;9.192;2022-07-23T13:50:36;8.35;;;5.57;;
41139;SDS011;26881;48.784;9.192;2022-07-23T13:55:59;7.05;;;5.25;;
41139;SDS011;26881;48.784;9.192;2022-07-23T14:01:21;6.70;;;5.30;;
41139;SDS011;26881;48.784;9.192;2022-07-23T14:06:43;11.23;;;9.88;;
41139;SDS011;26881;48.784;9.192;2022-07-23T14:12:11;6.75;;;5.35;;
41139;SDS011;26881;48.784;9.192;2022-07-23T14:17:33;5.40;;;4.90;;
41139;SDS011;26881;48.784;9.192;2022-07-23T14:22:55;6.35;;;4.70;;
41139;SDS011;26881;48.784;9.192;2022-07-23T14:28:21;5.32;;;4.82;;
41139;SDS011;26881;48.784;9.192;2022-07-23T14:33:43;6.43;;;5.53;;
41139;SDS011;26881;48.784;9.192;2022-07-23T14:39:05;7.00;;;4.90;;
41139;SDS011;26881;48.784;9.192;2022-07-23T14:44:30;8.43;;;5.70;;
41139;SDS011;26881;48.784;9.192;2022-07-23T14:49:52;7.03;;;5.07;;
41139;SDS011;26881;48.784;9.192;2022-07-23T14:55:14;6.13;;;4.90;;
41139;SDS011;26881;48.784;9.192;2022-07-23T15:00:40;5.30;;;4.80;;
41139;SDS011;26881;48.784;9.192;2022-07-23T15:06:03;7.65;;;4.72;;
41139;SDS011;26881;48.784;9.192;2022-07-23T15:11:28;4.80;;;4.40;;
41139;SDS011;26881;48.784;9.192;2022-07-23T15:16:52;8.13;;;7.32;;
41139;SDS011;26881;48.784;9.192;2022-07-23T15:22:14;5.05;;;4.65;;
41139;SDS011;26881;48.784;9.192;2022-07-23T15:27:36;5.40;;;4.72;;
41139;SDS011;26881;48.784;9.192;2022-07-23T15:32:58;5.20;;;4.80;;
41139;SDS011;26881;48.784;9.192;2022-07-23T15:38:20;5.35;;;4.82;;
41139;SDS011;26881;48.784;9.192;2022-07-23T15:43:46;6.60;;;6.00;;
41139;SDS011;26881;48.784;9.192;2022-07-23T15:49:08;8.48;;;5.45;;
41139;SDS011;26881;48.784;9.192;2022-07-23T15:54:39;6.32;;;5.00;;
41139;SDS011;26881;48.784;9.192;2022-07-23T16:00:03;5.15;;;4.65;;
41139;SDS011;26881;48.784;9.192;2022-07-23T16:05:25;10.40;;;5.35;;
41139;SDS011;26881;48.784;9.192;2022-07-23T16:10:49;6.50;;;5.20;;
41139;SDS011;26881;48.784;9.192;2022-07-23T16:16:11;5.93;;;5.05;;
41139;SDS011;26881;48.784;9.192;2022-07-23T16:21:34;11.10;;;5.72;;
41139;SDS011;26881;48.784;9.192;2022-07-23T16:26:56;6.25;;;5.45;;
41139;SDS011;26881;48.784;9.192;2022-07-23T16:32:17;5.85;;;5.28;;
41139;SDS011;26881;48.784;9.192;2022-07-23T16:37:39;5.35;;;4.88;;
41139;SDS011;26881;48.784;9.192;2022-07-23T16:43:02;5.63;;;4.90;;
41139;SDS011;26881;48.784;9.192;2022-07-23T16:48:24;7.13;;;4.82;;
41139;SDS011;26881;48.784;9.192;2022-07-23T16:53:46;7.95;;;5.10;;
41139;SDS011;26881;48.784;9.192;2022-07-23T16:59:08;6.78;;;6.10;;
41139;SDS011;26881;48.784;9.192;2022-07-23T17:04:30;7.28;;;6.13;;
41139;SDS011;26881;48.784;9.192;2022-07-23T17:09:52;6.65;;;6.05;;
41139;SDS011;26881;48.784;9.192;2022-07-23T17:15:13;7.63;;;6.90;;
41139;SDS011;26881;48.784;9.192;2022-07-23T17:20:35;7.00;;;6.40;;
41139;SDS011;26881;48.784;9.192;2022-07-23T17:25:57;7.10;;;6.40;;
41139;SDS011;26881;48.784;9.192;2022-07-23T17:31:19;9.13;;;6.28;;
41139;SDS011;26881;48.784;9.192;2022-07-23T17:36:41;7.05;;;6.28;;
41139;SDS011;26881;48.784;9.192;2022-07-23T17:42:02;7.80;;;7.00;;
41139;SDS011;26881;48.784;9.192;2022-07-23T17:47:24;8.70;;;7.55;;
41139;SDS011;26881;48.784;9.192;2022-07-23T17:52:47;7.68;;;6.93;;
41139;SDS011;26881;48.784;9.192;2022-07-23T17:58:14;8.45;;;7.65;;
41139;SDS011;26881;48.784;9.192;2022-07-23T18:03:37;9.10;;;7.50;;
41139;SDS011;26881;48.784;9.192;2022-07-23T18:08:59;8.15;;;7.45;;
41139;SDS011;26881;48.784;9.192;2022-07-23T18:14:27;10.23;;;9.00;;
41139;SDS011;26881;48.784;9.192;2022-07-23T18:19:50;11.07;;;8.57;;
41139;SDS011;26881;48.784;9.192;2022-07-23T18:25:12;8.98;;;7.68;;
41139;SDS011;26881;48.784;9.192;2022-07-23T18:30:35;8.88;;;7.10;;
41139;SDS011;26881;48.784;9.192;2022-07-23T18:35:57;9.10;;;6.60;;
41139;SDS011;26881;48.784;9.192;2022-07-23T18:41:19;8.00;;;7.07;;
41139;SDS011;26881;48.784;9.192;2022-07-23T18:46:42;8.88;;;8.00;;
41139;SDS011;26881;48.784;9.192;2022-07-23T18:52:04;11.20;;;7.13;;
41139;SDS011;26881;48.784;9.192;2022-07-23T18:57:26;9.98;;;9.05;;
41139;SDS011;26881;48.784;9.192;2022-07-23T19:02:48;9.95;;;8.00;;
41139;SDS011;26881;48.784;9.192;2022-07-23T19:08:11;9.82;;;7.30;;
41139;SDS011;26881;48.784;9.192;2022-07-23T19:13:33;8.52;;;7.63;;
41139;SDS011;26881;48.784;9.192;2022-07-23T19:18:55;8.60;;;7.13;;
41139;SDS011;26881;48.784;9.192;2022-07-23T19:24:17;8.30;;;7.53;;
41139;SDS011;26881;48.784;9.192;2022-07-23T19:29:43;10.10;;;7.93;;
41139;SDS011;26881;48.784;9.192;2022-07-23T19:35:06;13.85;;;10.82;;
41139;SDS011;26881;48.784;9.192;2022-07-23T19:40:28;13.40;;;11.40;;
41139;SDS011;26881;48.784;9.192;2022-07-23T19:45:50;10.68;;;9.68;;
41139;SDS011;26881;48.784;9.192;2022-07-23T19:51:12;9.05;;;8.10;;
41139;SDS011;26881;48.784;9.192;2022-07-23T19:56:34;8.32;;;7.53;;
41139;SDS011;26881;48.784;9.192;2022-07-23T20:01:56;10.63;;;7.03;;
41139;SDS011;26881;48.784;9.192;2022-07-23T20:07:18;8.65;;;7.75;;
41139;SDS011;26881;48.784;9.192;2022-07-23T20:12:40;9.68;;;7.43;;
41139;SDS011;26881;48.784;9.192;2022-07-23T20:18:02;8.55;;;7.80;;
41139;SDS011;26881;48.784;9.192;2022-07-23T20:23:24;8.55;;;7.60;;
41139;SDS011;26881;48.784;9.192;2022-07-23T20:28:46;8.27;;;7.45;;
41139;SDS011;26881;48.784;9.192;2022-07-23T20:34:09;8.40;;;7.60;;
41139;SDS011;26881;48.784;9.192;2022-07-23T20:39:30;9.50;;;7.93;;
41139;SDS011;26881;48.784;9.192;2022-07-23T20:44:52;8.35;;;7.45;;
41139;SDS011;26881;48.784;9.192;2022-07-23T20:50:14;8.18;;;7.45;;
41139;SDS011;26881;48.784;9.192;2022-07-23T20:55:36;9.15;;;7.75;;
41139;SDS011;26881;48.784;9.192;2022-07-23T21:00:58;8.50;;;7.70;;
41139;SDS011;26881;48.784;9.192;2022-07-23T21:06:20;10.38;;;7.50;;
41139;SDS011;26881;48.784;9.192;2022-07-23T21:11:42;9.38;;;8.43;;
41139;SDS011;26881;48.784;9.192;2022-07-23T21:17:04;11.35;;;8.55;;
41139;SDS011;26881;48.784;9.192;2022-07-23T21:22:26;9.52;;;8.57;;
41139;SDS011;26881;48.784;9.192;2022-07-23T21:27:47;9.23;;;8.30;;
41139;SDS011;26881;48.784;9.192;2022-07-23T21:33:09;9.23;;;8.25;;
41139;SDS011;26881;48.784;9.192;2022-07-23T21:38:31;8.70;;;7.72;;
41139;SDS011;26881;48.784;9.192;2022-07-23T21:43:53;9.18;;;8.07;;
41139;SDS011;26881;48.784;9.192;2022-07-23T21:49:15;13.13;;;8.63;;
41139;SDS011;26881;48.784;9.192;2022-07-23T21:54:36;10.10;;;9.07;;
41139;SDS011;26881;48.784;9.192;2022-07-23T21:59:58;13.00;;;9.45;;
41139;SDS011;26881;48.784;9.192;2022-07-23T22:05:20;9.80;;;8.80;;
41139;SDS011;26881;48.784;9.192;2022-07-23T22:10:46;9.82;;;8.38;;
41139;SDS011;26881;48.784;9.192;2022-07-23T22:16:08;9.90;;;8.80;;
41139;SDS011;26881;48.784;9.192;2022-07-23T22:21:30;9.68;;;8.80;;
41139;SDS011;26881;48.784;9.192;2022-07-23T22:27:04;10.13;;;8.90;;
41139;SDS011;26881;48.784;9.192;2022-07-23T22:32:26;9.55;;;8.55;;
41139;SDS011;26881;48.784;9.192;2022-07-23T22:37:48;11.77;;;8.98;;
41139;SDS011;26881;48.784;9.192;2022-07-23T22:43:10;9.88;;;8.00;;
41139;SDS011;26881;48.784;9.192;2022-07-23T22:48:32;12.77;;;8.82;;
41139;SDS011;26881;48.784;9.192;2022-07-23T22:53:54;11.25;;;9.15;;
41139;SDS011;26881;48.784;9.192;2022-07-23T22:59:15;10.38;;;9.02;;
41139;SDS011;26881;48.784;9.192;2022-07-23T23:04:50;11.02;;;8.88;;
41139;SDS011;26881;48.784;9.192;2022-07-23T23:10:12;9.32;;;8.20;;
41139;SDS011;26881;48.784;9.192;2022-07-23T23:15:34;9.73;;;8.73;;
41139;SDS011;26881;48.784;9.192;2022-07-23T23:20:56;12.68;;;8.45;;
41139;SDS011;26881;48.784;9.192;2022-07-23T23:26:17;9.43;;;8.27;;
41139;SDS011;26881;48.784;9.192;2022-07-23T23:31:39;10.85;;;9.23;;
41139;SDS011;26881;48.784;9.192;2022-07-23T23:37:01;9.65;;;8.75;;
41139;SDS011;26881;48.784;9.192;2022-07-23T23:42:23;9.68;;;8.77;;
41139;SDS011;26881;48.784;9.192;2022-07-23T23:47:45;10.05;;;9.07;;
41139;SDS011;26881;48.784;9.192;2022-07-23T23:53:06;9.93;;;8.93;;
41139;SDS011;26881;48.784;9.192;2022-07-23T23:58:28;9.88;;;8.98;;
